Aviation Digital Data Service (ADDS)

Output produced by METARs form (1246 UTC 22 March 2019)
found at http://www.aviationweather.gov/metar/data/
 
Forecast for: VEPY
Text: TAF VEPY 220800Z 2209/2218 25005KT 3000 -RA HZ SCT015 BKN090
Forecast period: 0900 to 1600 UTC 22 March 2019
Forecast type: FROM: standard forecast or significant change
Winds: from the WSW (250 degrees) at 6 MPH (5 knots; 2.6 m/s)
Visibility: 1.86 miles (2.99 km)
Ceiling: 9000 feet AGL
Clouds: scattered clouds at 1500 feet AGL
broken clouds at 9000 feet AGL
Weather: -RA HZ  (light rain, haze)
Text: TEMPO 2212/2216 1500 TSRA FEW025CB OVC090
Forecast period: 1200 to 1600 UTC 22 March 2019
Forecast type: TEMPORARY: The following changes expected for less than half the time period
Visibility: 0.93 miles (1.50 km)
Ceiling: 9000 feet AGL
Clouds: few clouds at 2500 feet AGL
overcast cloud deck at 9000 feet AGL
Weather: TSRA  (rain associated with thunderstorm(s))
Text: BECMG 2216/2218 2500 -RA HZ
Forecast period: 1600 to 1800 UTC 22 March 2019
Forecast type: BECOMING: Conditions expected to become as follows by 1800 UTC 22 March 2019
Winds: from the WSW (250 degrees) at 6 MPH (5 knots; 2.6 m/s)
Visibility: 1.55 miles (2.49 km)
Ceiling: 9000 feet AGL
Clouds: scattered clouds at 1500 feet AGL
broken clouds at 9000 feet AGL
Weather: -RA HZ  (light rain, haze)